sensor_id;sensor_type;location;lat;lon;timestamp;temperature;humidity
36424;DHT22;22458;45.328;9.514;2023-04-28T00:01:31;17.80;62.50
36424;DHT22;22458;45.328;9.514;2023-04-28T00:03:57;17.70;62.50
36424;DHT22;22458;45.328;9.514;2023-04-28T00:06:23;17.60;62.70
36424;DHT22;22458;45.328;9.514;2023-04-28T00:08:49;17.70;62.80
36424;DHT22;22458;45.328;9.514;2023-04-28T00:11:15;17.60;62.80
36424;DHT22;22458;45.328;9.514;2023-04-28T00:13:40;17.60;62.90
36424;DHT22;22458;45.328;9.514;2023-04-28T00:16:06;17.60;62.90
36424;DHT22;22458;45.328;9.514;2023-04-28T00:18:32;17.50;62.90
36424;DHT22;22458;45.328;9.514;2023-04-28T00:20:58;17.50;63.20
36424;DHT22;22458;45.328;9.514;2023-04-28T00:23:23;17.50;63.30
36424;DHT22;22458;45.328;9.514;2023-04-28T00:25:53;17.50;63.30
36424;DHT22;22458;45.328;9.514;2023-04-28T00:28:19;17.40;63.50
36424;DHT22;22458;45.328;9.514;2023-04-28T00:30:46;17.40;63.50
36424;DHT22;22458;45.328;9.514;2023-04-28T00:33:12;17.40;63.50
36424;DHT22;22458;45.328;9.514;2023-04-28T00:35:39;17.50;63.60
36424;DHT22;22458;45.328;9.514;2023-04-28T00:38:05;17.40;63.50
36424;DHT22;22458;45.328;9.514;2023-04-28T00:40:38;17.40;63.60
36424;DHT22;22458;45.328;9.514;2023-04-28T00:43:04;17.40;63.60
36424;DHT22;22458;45.328;9.514;2023-04-28T00:45:31;17.30;63.60
36424;DHT22;22458;45.328;9.514;2023-04-28T00:47:57;17.20;63.70
36424;DHT22;22458;45.328;9.514;2023-04-28T00:50:24;17.10;63.80
36424;DHT22;22458;45.328;9.514;2023-04-28T00:52:51;17.10;63.90
36424;DHT22;22458;45.328;9.514;2023-04-28T00:55:17;17.10;64.00
36424;DHT22;22458;45.328;9.514;2023-04-28T00:57:43;17.00;64.10
36424;DHT22;22458;45.328;9.514;2023-04-28T01:00:09;17.00;64.20
36424;DHT22;22458;45.328;9.514;2023-04-28T01:02:35;16.90;64.20
36424;DHT22;22458;45.328;9.514;2023-04-28T01:05:02;16.90;64.30
36424;DHT22;22458;45.328;9.514;2023-04-28T01:07:28;16.90;64.60
36424;DHT22;22458;45.328;9.514;2023-04-28T01:09:55;16.80;64.60
36424;DHT22;22458;45.328;9.514;2023-04-28T01:12:25;16.80;64.80
36424;DHT22;22458;45.328;9.514;2023-04-28T01:14:54;16.80;64.80
36424;DHT22;22458;45.328;9.514;2023-04-28T01:17:20;16.80;64.80
36424;DHT22;22458;45.328;9.514;2023-04-28T01:19:46;16.70;64.90
36424;DHT22;22458;45.328;9.514;2023-04-28T01:22:12;16.70;65.10
36424;DHT22;22458;45.328;9.514;2023-04-28T01:24:42;16.60;65.20
36424;DHT22;22458;45.328;9.514;2023-04-28T01:27:09;16.60;65.30
36424;DHT22;22458;45.328;9.514;2023-04-28T01:29:37;16.60;65.40
36424;DHT22;22458;45.328;9.514;2023-04-28T01:32:04;16.60;65.50
36424;DHT22;22458;45.328;9.514;2023-04-28T01:34:32;16.60;65.70
36424;DHT22;22458;45.328;9.514;2023-04-28T01:36:57;16.50;65.70
36424;DHT22;22458;45.328;9.514;2023-04-28T01:39:23;16.50;65.80
36424;DHT22;22458;45.328;9.514;2023-04-28T01:41:49;16.50;65.90
36424;DHT22;22458;45.328;9.514;2023-04-28T01:44:14;16.50;65.90
36424;DHT22;22458;45.328;9.514;2023-04-28T01:46:40;16.40;66.00
36424;DHT22;22458;45.328;9.514;2023-04-28T01:49:06;16.40;66.10
36424;DHT22;22458;45.328;9.514;2023-04-28T01:51:32;16.40;66.20
36424;DHT22;22458;45.328;9.514;2023-04-28T01:53:59;16.40;66.30
36424;DHT22;22458;45.328;9.514;2023-04-28T01:56:25;16.30;66.40
36424;DHT22;22458;45.328;9.514;2023-04-28T01:58:53;16.30;66.50
36424;DHT22;22458;45.328;9.514;2023-04-28T02:01:19;16.20;66.50
36424;DHT22;22458;45.328;9.514;2023-04-28T02:03:45;16.20;66.60
36424;DHT22;22458;45.328;9.514;2023-04-28T02:06:11;16.10;66.60
36424;DHT22;22458;45.328;9.514;2023-04-28T02:08:36;16.10;66.70
36424;DHT22;22458;45.328;9.514;2023-04-28T02:11:02;16.10;66.70
36424;DHT22;22458;45.328;9.514;2023-04-28T02:13:28;16.10;66.80
36424;DHT22;22458;45.328;9.514;2023-04-28T02:15:55;16.10;66.80
36424;DHT22;22458;45.328;9.514;2023-04-28T02:18:21;16.00;67.00
36424;DHT22;22458;45.328;9.514;2023-04-28T02:20:46;16.00;67.60
36424;DHT22;22458;45.328;9.514;2023-04-28T02:23:12;16.00;67.00
36424;DHT22;22458;45.328;9.514;2023-04-28T02:25:38;16.00;67.00
36424;DHT22;22458;45.328;9.514;2023-04-28T02:28:03;16.00;66.90
36424;DHT22;22458;45.328;9.514;2023-04-28T02:30:29;16.00;66.90
36424;DHT22;22458;45.328;9.514;2023-04-28T02:32:55;16.00;67.00
36424;DHT22;22458;45.328;9.514;2023-04-28T02:35:21;15.90;67.10
36424;DHT22;22458;45.328;9.514;2023-04-28T02:37:46;15.90;67.30
36424;DHT22;22458;45.328;9.514;2023-04-28T02:40:12;15.80;67.40
36424;DHT22;22458;45.328;9.514;2023-04-28T02:42:38;15.80;67.40
36424;DHT22;22458;45.328;9.514;2023-04-28T02:45:04;15.80;67.50
36424;DHT22;22458;45.328;9.514;2023-04-28T02:47:30;15.70;67.50
36424;DHT22;22458;45.328;9.514;2023-04-28T02:49:56;15.70;67.60
36424;DHT22;22458;45.328;9.514;2023-04-28T02:52:22;15.60;67.80
36424;DHT22;22458;45.328;9.514;2023-04-28T02:54:48;15.60;68.00
36424;DHT22;22458;45.328;9.514;2023-04-28T02:57:18;15.50;68.00
36424;DHT22;22458;45.328;9.514;2023-04-28T02:59:44;15.50;68.10
36424;DHT22;22458;45.328;9.514;2023-04-28T03:02:10;15.50;68.20
36424;DHT22;22458;45.328;9.514;2023-04-28T03:04:37;15.60;68.30
36424;DHT22;22458;45.328;9.514;2023-04-28T03:07:03;15.50;68.30
36424;DHT22;22458;45.328;9.514;2023-04-28T03:09:28;15.60;68.30
36424;DHT22;22458;45.328;9.514;2023-04-28T03:11:54;15.60;68.30
36424;DHT22;22458;45.328;9.514;2023-04-28T03:14:20;15.50;68.30
36424;DHT22;22458;45.328;9.514;2023-04-28T03:16:46;15.50;68.60
36424;DHT22;22458;45.328;9.514;2023-04-28T03:19:11;15.50;68.70
36424;DHT22;22458;45.328;9.514;2023-04-28T03:21:37;15.40;68.80
36424;DHT22;22458;45.328;9.514;2023-04-28T03:24:03;15.40;69.00
36424;DHT22;22458;45.328;9.514;2023-04-28T03:26:29;15.40;68.90
36424;DHT22;22458;45.328;9.514;2023-04-28T03:28:54;15.40;69.10
36424;DHT22;22458;45.328;9.514;2023-04-28T03:31:21;15.50;69.20
36424;DHT22;22458;45.328;9.514;2023-04-28T03:33:47;15.40;69.40
36424;DHT22;22458;45.328;9.514;2023-04-28T03:36:15;15.40;69.40
36424;DHT22;22458;45.328;9.514;2023-04-28T03:38:41;15.40;69.50
36424;DHT22;22458;45.328;9.514;2023-04-28T03:41:07;15.40;69.50
36424;DHT22;22458;45.328;9.514;2023-04-28T03:43:55;15.30;69.60
36424;DHT22;22458;45.328;9.514;2023-04-28T03:46:33;15.30;69.70
36424;DHT22;22458;45.328;9.514;2023-04-28T03:49:00;15.20;69.90
36424;DHT22;22458;45.328;9.514;2023-04-28T03:51:29;15.20;70.10
36424;DHT22;22458;45.328;9.514;2023-04-28T03:53:58;15.10;70.30
36424;DHT22;22458;45.328;9.514;2023-04-28T03:56:24;15.10;70.40
36424;DHT22;22458;45.328;9.514;2023-04-28T03:58:50;15.10;70.50
36424;DHT22;22458;45.328;9.514;2023-04-28T04:01:16;15.00;70.50
36424;DHT22;22458;45.328;9.514;2023-04-28T04:03:42;15.00;70.60
36424;DHT22;22458;45.328;9.514;2023-04-28T04:06:07;15.00;70.80
36424;DHT22;22458;45.328;9.514;2023-04-28T04:08:33;15.00;71.00
36424;DHT22;22458;45.328;9.514;2023-04-28T04:10:59;14.90;71.10
36424;DHT22;22458;45.328;9.514;2023-04-28T04:13:25;14.90;71.20
36424;DHT22;22458;45.328;9.514;2023-04-28T04:15:51;14.80;71.40
36424;DHT22;22458;45.328;9.514;2023-04-28T04:18:19;14.80;71.70
36424;DHT22;22458;45.328;9.514;2023-04-28T04:21:07;14.80;71.90
36424;DHT22;22458;45.328;9.514;2023-04-28T04:23:34;14.90;71.90
36424;DHT22;22458;45.328;9.514;2023-04-28T04:26:00;14.90;71.80
36424;DHT22;22458;45.328;9.514;2023-04-28T04:28:26;14.90;72.40
36424;DHT22;22458;45.328;9.514;2023-04-28T04:30:51;14.90;72.10
36424;DHT22;22458;45.328;9.514;2023-04-28T04:33:17;14.90;72.20
36424;DHT22;22458;45.328;9.514;2023-04-28T04:35:44;14.90;72.30
36424;DHT22;22458;45.328;9.514;2023-04-28T04:38:11;14.90;72.50
36424;DHT22;22458;45.328;9.514;2023-04-28T04:40:37;15.00;72.60
36424;DHT22;22458;45.328;9.514;2023-04-28T04:43:04;15.00;72.70
36424;DHT22;22458;45.328;9.514;2023-04-28T04:45:37;15.00;72.70
36424;DHT22;22458;45.328;9.514;2023-04-28T04:48:05;15.00;72.60
36424;DHT22;22458;45.328;9.514;2023-04-28T04:50:30;15.00;72.70
36424;DHT22;22458;45.328;9.514;2023-04-28T04:52:57;15.00;72.80
36424;DHT22;22458;45.328;9.514;2023-04-28T04:55:23;15.10;72.70
36424;DHT22;22458;45.328;9.514;2023-04-28T04:57:50;15.10;72.70
36424;DHT22;22458;45.328;9.514;2023-04-28T05:00:35;15.20;72.80
36424;DHT22;22458;45.328;9.514;2023-04-28T05:03:02;15.20;72.80
36424;DHT22;22458;45.328;9.514;2023-04-28T05:05:31;15.20;72.60
36424;DHT22;22458;45.328;9.514;2023-04-28T05:08:06;15.30;72.60
36424;DHT22;22458;45.328;9.514;2023-04-28T05:10:33;15.40;72.60
36424;DHT22;22458;45.328;9.514;2023-04-28T05:13:01;15.30;72.60
36424;DHT22;22458;45.328;9.514;2023-04-28T05:15:27;15.40;72.70
36424;DHT22;22458;45.328;9.514;2023-04-28T05:18:12;15.40;72.80
36424;DHT22;22458;45.328;9.514;2023-04-28T05:20:38;15.50;72.70
36424;DHT22;22458;45.328;9.514;2023-04-28T05:23:05;15.60;72.70
36424;DHT22;22458;45.328;9.514;2023-04-28T05:25:31;15.60;72.60
36424;DHT22;22458;45.328;9.514;2023-04-28T05:27:57;15.60;72.50
36424;DHT22;22458;45.328;9.514;2023-04-28T05:30:23;15.70;72.40
36424;DHT22;22458;45.328;9.514;2023-04-28T05:32:50;15.70;72.20
36424;DHT22;22458;45.328;9.514;2023-04-28T05:35:16;15.70;72.10
36424;DHT22;22458;45.328;9.514;2023-04-28T05:37:42;15.70;72.10
36424;DHT22;22458;45.328;9.514;2023-04-28T05:40:11;15.70;72.30
36424;DHT22;22458;45.328;9.514;2023-04-28T05:42:37;15.60;72.40
36424;DHT22;22458;45.328;9.514;2023-04-28T05:45:03;15.70;72.40
36424;DHT22;22458;45.328;9.514;2023-04-28T05:47:28;15.70;72.30
36424;DHT22;22458;45.328;9.514;2023-04-28T05:49:55;15.70;72.10
36424;DHT22;22458;45.328;9.514;2023-04-28T05:52:21;15.80;72.10
36424;DHT22;22458;45.328;9.514;2023-04-28T05:54:47;15.80;72.50
36424;DHT22;22458;45.328;9.514;2023-04-28T05:57:13;16.00;71.90
36424;DHT22;22458;45.328;9.514;2023-04-28T05:59:39;16.00;71.80
36424;DHT22;22458;45.328;9.514;2023-04-28T06:02:05;16.00;72.30
36424;DHT22;22458;45.328;9.514;2023-04-28T06:04:31;16.10;71.70
36424;DHT22;22458;45.328;9.514;2023-04-28T06:06:57;16.20;71.60
36424;DHT22;22458;45.328;9.514;2023-04-28T06:09:24;16.20;71.50
36424;DHT22;22458;45.328;9.514;2023-04-28T06:11:52;16.30;71.50
36424;DHT22;22458;45.328;9.514;2023-04-28T06:14:18;16.30;71.40
36424;DHT22;22458;45.328;9.514;2023-04-28T06:16:44;16.40;71.40
36424;DHT22;22458;45.328;9.514;2023-04-28T06:19:10;16.40;71.40
36424;DHT22;22458;45.328;9.514;2023-04-28T06:21:36;16.50;71.50
36424;DHT22;22458;45.328;9.514;2023-04-28T06:24:02;16.60;71.50
36424;DHT22;22458;45.328;9.514;2023-04-28T06:26:28;16.50;71.50
36424;DHT22;22458;45.328;9.514;2023-04-28T06:28:54;16.50;71.80
36424;DHT22;22458;45.328;9.514;2023-04-28T06:31:20;16.50;72.10
36424;DHT22;22458;45.328;9.514;2023-04-28T06:33:45;16.40;72.60
36424;DHT22;22458;45.328;9.514;2023-04-28T06:36:11;16.50;73.00
36424;DHT22;22458;45.328;9.514;2023-04-28T06:38:39;16.60;72.90
36424;DHT22;22458;45.328;9.514;2023-04-28T06:41:09;16.80;72.80
36424;DHT22;22458;45.328;9.514;2023-04-28T06:43:35;16.90;72.50
36424;DHT22;22458;45.328;9.514;2023-04-28T06:46:13;17.00;72.50
36424;DHT22;22458;45.328;9.514;2023-04-28T06:48:39;17.10;72.70
36424;DHT22;22458;45.328;9.514;2023-04-28T06:51:04;17.10;72.90
36424;DHT22;22458;45.328;9.514;2023-04-28T06:53:33;17.10;73.30
36424;DHT22;22458;45.328;9.514;2023-04-28T06:55:59;17.10;73.90
36424;DHT22;22458;45.328;9.514;2023-04-28T06:58:26;17.20;73.60
36424;DHT22;22458;45.328;9.514;2023-04-28T07:00:52;17.30;73.60
36424;DHT22;22458;45.328;9.514;2023-04-28T07:03:18;17.40;73.60
36424;DHT22;22458;45.328;9.514;2023-04-28T07:05:43;17.40;73.60
36424;DHT22;22458;45.328;9.514;2023-04-28T07:08:10;17.50;73.60
36424;DHT22;22458;45.328;9.514;2023-04-28T07:10:35;17.60;73.60
36424;DHT22;22458;45.328;9.514;2023-04-28T07:13:01;17.70;73.60
36424;DHT22;22458;45.328;9.514;2023-04-28T07:15:27;17.70;73.50
36424;DHT22;22458;45.328;9.514;2023-04-28T07:17:53;17.80;73.40
36424;DHT22;22458;45.328;9.514;2023-04-28T07:20:19;17.90;73.20
36424;DHT22;22458;45.328;9.514;2023-04-28T07:22:44;17.90;73.20
36424;DHT22;22458;45.328;9.514;2023-04-28T07:25:10;18.00;73.30
36424;DHT22;22458;45.328;9.514;2023-04-28T07:27:36;18.10;73.30
36424;DHT22;22458;45.328;9.514;2023-04-28T07:30:02;18.10;73.20
36424;DHT22;22458;45.328;9.514;2023-04-28T07:32:28;18.20;73.10
36424;DHT22;22458;45.328;9.514;2023-04-28T07:34:53;18.20;73.10
36424;DHT22;22458;45.328;9.514;2023-04-28T07:37:19;18.20;73.10
36424;DHT22;22458;45.328;9.514;2023-04-28T07:39:45;18.20;73.20
36424;DHT22;22458;45.328;9.514;2023-04-28T07:42:11;18.20;73.20
36424;DHT22;22458;45.328;9.514;2023-04-28T07:44:37;18.20;73.30
36424;DHT22;22458;45.328;9.514;2023-04-28T07:47:03;18.20;73.30
36424;DHT22;22458;45.328;9.514;2023-04-28T07:49:28;18.30;73.20
36424;DHT22;22458;45.328;9.514;2023-04-28T07:51:54;18.40;73.00
36424;DHT22;22458;45.328;9.514;2023-04-28T07:54:21;18.40;72.90
36424;DHT22;22458;45.328;9.514;2023-04-28T07:56:47;18.50;72.70
36424;DHT22;22458;45.328;9.514;2023-04-28T07:59:13;18.50;72.40
36424;DHT22;22458;45.328;9.514;2023-04-28T08:01:39;18.60;72.00
36424;DHT22;22458;45.328;9.514;2023-04-28T08:04:05;18.70;71.60
36424;DHT22;22458;45.328;9.514;2023-04-28T08:06:31;18.80;71.50
36424;DHT22;22458;45.328;9.514;2023-04-28T08:08:58;18.80;71.40
36424;DHT22;22458;45.328;9.514;2023-04-28T08:11:24;18.90;71.30
36424;DHT22;22458;45.328;9.514;2023-04-28T08:13:50;18.90;70.90
36424;DHT22;22458;45.328;9.514;2023-04-28T08:16:16;18.90;70.70
36424;DHT22;22458;45.328;9.514;2023-04-28T08:18:42;19.00;71.10
36424;DHT22;22458;45.328;9.514;2023-04-28T08:21:07;19.20;69.90
36424;DHT22;22458;45.328;9.514;2023-04-28T08:23:34;19.30;69.40
36424;DHT22;22458;45.328;9.514;2023-04-28T08:26:00;19.50;69.20
36424;DHT22;22458;45.328;9.514;2023-04-28T08:28:26;19.50;68.40
36424;DHT22;22458;45.328;9.514;2023-04-28T08:30:52;19.60;67.80
36424;DHT22;22458;45.328;9.514;2023-04-28T08:33:20;19.70;67.30
36424;DHT22;22458;45.328;9.514;2023-04-28T08:35:45;19.80;66.90
36424;DHT22;22458;45.328;9.514;2023-04-28T08:38:11;19.90;66.40
36424;DHT22;22458;45.328;9.514;2023-04-28T08:40:39;20.00;65.90
36424;DHT22;22458;45.328;9.514;2023-04-28T08:43:07;20.10;65.70
36424;DHT22;22458;45.328;9.514;2023-04-28T08:45:40;20.20;65.30
36424;DHT22;22458;45.328;9.514;2023-04-28T08:48:18;20.30;64.80
36424;DHT22;22458;45.328;9.514;2023-04-28T08:50:50;20.30;64.80
36424;DHT22;22458;45.328;9.514;2023-04-28T08:53:24;20.40;64.50
36424;DHT22;22458;45.328;9.514;2023-04-28T08:55:57;20.50;64.00
36424;DHT22;22458;45.328;9.514;2023-04-28T08:58:24;20.60;63.30
36424;DHT22;22458;45.328;9.514;2023-04-28T09:00:53;20.70;62.90
36424;DHT22;22458;45.328;9.514;2023-04-28T09:03:19;20.80;62.20
36424;DHT22;22458;45.328;9.514;2023-04-28T09:05:45;20.90;61.80
36424;DHT22;22458;45.328;9.514;2023-04-28T09:08:11;20.90;61.40
36424;DHT22;22458;45.328;9.514;2023-04-28T09:10:37;21.00;61.00
36424;DHT22;22458;45.328;9.514;2023-04-28T09:13:03;21.10;60.50
36424;DHT22;22458;45.328;9.514;2023-04-28T09:17:59;21.30;60.00
36424;DHT22;22458;45.328;9.514;2023-04-28T09:20:26;21.40;59.70
36424;DHT22;22458;45.328;9.514;2023-04-28T09:22:54;21.40;59.20
36424;DHT22;22458;45.328;9.514;2023-04-28T09:25:21;21.50;59.10
36424;DHT22;22458;45.328;9.514;2023-04-28T09:27:50;21.50;59.10
36424;DHT22;22458;45.328;9.514;2023-04-28T09:30:15;21.60;58.80
36424;DHT22;22458;45.328;9.514;2023-04-28T09:32:41;21.60;58.90
36424;DHT22;22458;45.328;9.514;2023-04-28T09:35:07;21.70;58.40
36424;DHT22;22458;45.328;9.514;2023-04-28T09:37:34;21.90;58.00
36424;DHT22;22458;45.328;9.514;2023-04-28T09:40:08;22.10;57.70
36424;DHT22;22458;45.328;9.514;2023-04-28T09:42:42;22.30;57.10
36424;DHT22;22458;45.328;9.514;2023-04-28T09:45:13;22.40;56.50
36424;DHT22;22458;45.328;9.514;2023-04-28T09:47:41;22.40;56.40
36424;DHT22;22458;45.328;9.514;2023-04-28T09:50:09;22.50;56.00
36424;DHT22;22458;45.328;9.514;2023-04-28T09:52:37;22.60;55.90
36424;DHT22;22458;45.328;9.514;2023-04-28T09:55:05;22.70;56.10
36424;DHT22;22458;45.328;9.514;2023-04-28T09:57:35;22.90;55.30
36424;DHT22;22458;45.328;9.514;2023-04-28T10:00:03;23.00;55.00
36424;DHT22;22458;45.328;9.514;2023-04-28T10:02:35;23.00;54.50
36424;DHT22;22458;45.328;9.514;2023-04-28T10:05:01;23.00;54.20
36424;DHT22;22458;45.328;9.514;2023-04-28T10:07:28;23.00;54.30
36424;DHT22;22458;45.328;9.514;2023-04-28T10:09:55;23.10;54.00
36424;DHT22;22458;45.328;9.514;2023-04-28T10:12:23;23.20;53.50
36424;DHT22;22458;45.328;9.514;2023-04-28T10:14:50;23.30;52.90
36424;DHT22;22458;45.328;9.514;2023-04-28T10:17:20;23.40;52.60
36424;DHT22;22458;45.328;9.514;2023-04-28T10:19:48;23.60;52.20
36424;DHT22;22458;45.328;9.514;2023-04-28T10:25:26;23.80;51.70
36424;DHT22;22458;45.328;9.514;2023-04-28T10:27:53;23.90;51.30
36424;DHT22;22458;45.328;9.514;2023-04-28T10:30:23;24.00;50.80
36424;DHT22;22458;45.328;9.514;2023-04-28T10:35:42;24.30;50.10
36424;DHT22;22458;45.328;9.514;2023-04-28T10:38:17;24.50;50.00
36424;DHT22;22458;45.328;9.514;2023-04-28T10:40:44;24.50;49.70
36424;DHT22;22458;45.328;9.514;2023-04-28T10:43:11;24.30;49.50
36424;DHT22;22458;45.328;9.514;2023-04-28T10:48:19;24.30;49.40
36424;DHT22;22458;45.328;9.514;2023-04-28T10:56:14;24.50;48.90
36424;DHT22;22458;45.328;9.514;2023-04-28T10:58:42;24.70;49.10
36424;DHT22;22458;45.328;9.514;2023-04-28T11:06:23;25.20;48.00
36424;DHT22;22458;45.328;9.514;2023-04-28T11:08:56;25.20;47.50
36424;DHT22;22458;45.328;9.514;2023-04-28T11:11:32;24.80;47.20
36424;DHT22;22458;45.328;9.514;2023-04-28T11:16:55;24.50;48.40
36424;DHT22;22458;45.328;9.514;2023-04-28T11:19:33;24.70;48.30
36424;DHT22;22458;45.328;9.514;2023-04-28T11:22:00;24.90;47.60
36424;DHT22;22458;45.328;9.514;2023-04-28T11:24:27;24.70;47.50
36424;DHT22;22458;45.328;9.514;2023-04-28T11:26:54;24.70;47.50
36424;DHT22;22458;45.328;9.514;2023-04-28T11:29:34;24.70;47.60
36424;DHT22;22458;45.328;9.514;2023-04-28T11:32:01;25.00;47.10
36424;DHT22;22458;45.328;9.514;2023-04-28T11:34:27;25.10;47.40
36424;DHT22;22458;45.328;9.514;2023-04-28T11:36:53;25.50;47.10
36424;DHT22;22458;45.328;9.514;2023-04-28T11:39:31;25.80;46.70
36424;DHT22;22458;45.328;9.514;2023-04-28T11:42:08;26.10;46.40
36424;DHT22;22458;45.328;9.514;2023-04-28T11:44:34;26.60;45.90
36424;DHT22;22458;45.328;9.514;2023-04-28T11:47:01;27.00;45.30
36424;DHT22;22458;45.328;9.514;2023-04-28T11:49:28;27.20;44.90
36424;DHT22;22458;45.328;9.514;2023-04-28T11:51:56;27.80;45.00
36424;DHT22;22458;45.328;9.514;2023-04-28T11:54:27;28.50;44.10
36424;DHT22;22458;45.328;9.514;2023-04-28T11:56:54;29.20;43.20
36424;DHT22;22458;45.328;9.514;2023-04-28T11:59:28;29.40;43.20
36424;DHT22;22458;45.328;9.514;2023-04-28T12:01:59;28.80;42.20
36424;DHT22;22458;45.328;9.514;2023-04-28T12:07:11;28.00;43.60
36424;DHT22;22458;45.328;9.514;2023-04-28T12:09:43;27.70;43.70
36424;DHT22;22458;45.328;9.514;2023-04-28T12:12:11;27.80;43.70
36424;DHT22;22458;45.328;9.514;2023-04-28T12:14:54;28.10;43.70
36424;DHT22;22458;45.328;9.514;2023-04-28T12:17:30;28.40;43.30
36424;DHT22;22458;45.328;9.514;2023-04-28T12:19:59;28.70;43.00
36424;DHT22;22458;45.328;9.514;2023-04-28T12:22:25;28.80;42.80
36424;DHT22;22458;45.328;9.514;2023-04-28T12:25:10;28.70;42.60
36424;DHT22;22458;45.328;9.514;2023-04-28T12:27:37;28.60;42.40
36424;DHT22;22458;45.328;9.514;2023-04-28T12:30:23;28.30;42.60
36424;DHT22;22458;45.328;9.514;2023-04-28T12:32:50;28.20;42.70
36424;DHT22;22458;45.328;9.514;2023-04-28T12:35:16;28.00;42.70
36424;DHT22;22458;45.328;9.514;2023-04-28T12:37:42;27.90;42.70
36424;DHT22;22458;45.328;9.514;2023-04-28T12:40:09;27.80;42.80
36424;DHT22;22458;45.328;9.514;2023-04-28T12:42:35;27.70;42.80
36424;DHT22;22458;45.328;9.514;2023-04-28T12:45:02;27.70;42.80
36424;DHT22;22458;45.328;9.514;2023-04-28T12:47:28;27.60;42.70
36424;DHT22;22458;45.328;9.514;2023-04-28T12:49:53;27.70;42.70
36424;DHT22;22458;45.328;9.514;2023-04-28T12:52:19;27.60;42.90
36424;DHT22;22458;45.328;9.514;2023-04-28T12:54:46;27.50;43.00
36424;DHT22;22458;45.328;9.514;2023-04-28T12:57:12;27.20;43.00
36424;DHT22;22458;45.328;9.514;2023-04-28T12:59:38;27.00;43.60
36424;DHT22;22458;45.328;9.514;2023-04-28T13:02:04;26.80;44.10
36424;DHT22;22458;45.328;9.514;2023-04-28T13:04:30;26.60;43.40
36424;DHT22;22458;45.328;9.514;2023-04-28T13:06:57;26.60;43.70
36424;DHT22;22458;45.328;9.514;2023-04-28T13:09:23;26.60;43.80
36424;DHT22;22458;45.328;9.514;2023-04-28T13:11:49;26.70;44.10
36424;DHT22;22458;45.328;9.514;2023-04-28T13:14:18;26.80;43.90
36424;DHT22;22458;45.328;9.514;2023-04-28T13:16:44;27.10;43.90
36424;DHT22;22458;45.328;9.514;2023-04-28T13:19:10;27.20;43.90
36424;DHT22;22458;45.328;9.514;2023-04-28T13:21:41;27.30;43.50
36424;DHT22;22458;45.328;9.514;2023-04-28T13:24:08;27.50;43.30
36424;DHT22;22458;45.328;9.514;2023-04-28T13:26:34;27.60;43.00
36424;DHT22;22458;45.328;9.514;2023-04-28T13:29:00;27.70;43.40
36424;DHT22;22458;45.328;9.514;2023-04-28T13:31:28;27.60;42.80
36424;DHT22;22458;45.328;9.514;2023-04-28T13:33:55;27.70;42.80
36424;DHT22;22458;45.328;9.514;2023-04-28T13:36:21;27.70;42.70
36424;DHT22;22458;45.328;9.514;2023-04-28T13:38:46;27.80;42.70
36424;DHT22;22458;45.328;9.514;2023-04-28T13:41:17;27.80;42.50
36424;DHT22;22458;45.328;9.514;2023-04-28T13:43:43;27.90;43.10
36424;DHT22;22458;45.328;9.514;2023-04-28T13:46:10;27.70;42.50
36424;DHT22;22458;45.328;9.514;2023-04-28T13:48:37;27.40;43.20
36424;DHT22;22458;45.328;9.514;2023-04-28T13:51:03;27.50;43.30
36424;DHT22;22458;45.328;9.514;2023-04-28T13:53:30;27.60;43.50
36424;DHT22;22458;45.328;9.514;2023-04-28T13:55:56;27.60;43.70
36424;DHT22;22458;45.328;9.514;2023-04-28T13:58:26;27.60;43.90
36424;DHT22;22458;45.328;9.514;2023-04-28T14:00:53;27.70;43.80
36424;DHT22;22458;45.328;9.514;2023-04-28T14:03:19;27.80;43.70
36424;DHT22;22458;45.328;9.514;2023-04-28T14:05:53;28.10;43.50
36424;DHT22;22458;45.328;9.514;2023-04-28T14:08:19;28.00;43.30
36424;DHT22;22458;45.328;9.514;2023-04-28T14:10:46;27.90;43.40
36424;DHT22;22458;45.328;9.514;2023-04-28T14:13:13;28.20;44.10
36424;DHT22;22458;45.328;9.514;2023-04-28T14:15:38;28.30;43.40
36424;DHT22;22458;45.328;9.514;2023-04-28T14:18:05;28.40;43.30
36424;DHT22;22458;45.328;9.514;2023-04-28T14:20:31;28.50;43.20
36424;DHT22;22458;45.328;9.514;2023-04-28T14:22:57;28.60;43.10
36424;DHT22;22458;45.328;9.514;2023-04-28T14:25:23;28.80;42.90
36424;DHT22;22458;45.328;9.514;2023-04-28T14:27:49;28.70;42.70
36424;DHT22;22458;45.328;9.514;2023-04-28T14:30:16;28.50;42.70
36424;DHT22;22458;45.328;9.514;2023-04-28T14:32:42;28.20;43.10
36424;DHT22;22458;45.328;9.514;2023-04-28T14:35:08;28.10;43.40
36424;DHT22;22458;45.328;9.514;2023-04-28T14:37:34;28.10;43.20
36424;DHT22;22458;45.328;9.514;2023-04-28T14:40:00;28.10;43.40
36424;DHT22;22458;45.328;9.514;2023-04-28T14:42:31;28.20;43.40
36424;DHT22;22458;45.328;9.514;2023-04-28T14:44:58;28.20;43.50
36424;DHT22;22458;45.328;9.514;2023-04-28T14:47:24;28.30;43.60
36424;DHT22;22458;45.328;9.514;2023-04-28T14:49:52;28.40;43.50
36424;DHT22;22458;45.328;9.514;2023-04-28T14:52:19;28.50;43.40
36424;DHT22;22458;45.328;9.514;2023-04-28T14:54:46;28.60;43.00
36424;DHT22;22458;45.328;9.514;2023-04-28T14:57:12;29.00;42.80
36424;DHT22;22458;45.328;9.514;2023-04-28T14:59:38;29.50;42.50
36424;DHT22;22458;45.328;9.514;2023-04-28T15:02:04;30.20;42.00
36424;DHT22;22458;45.328;9.514;2023-04-28T15:04:30;30.90;41.30
36424;DHT22;22458;45.328;9.514;2023-04-28T15:06:56;31.40;40.70
36424;DHT22;22458;45.328;9.514;2023-04-28T15:09:22;31.70;40.50
36424;DHT22;22458;45.328;9.514;2023-04-28T15:11:48;31.80;40.80
36424;DHT22;22458;45.328;9.514;2023-04-28T15:14:14;31.70;39.90
36424;DHT22;22458;45.328;9.514;2023-04-28T15:16:40;31.50;39.60
36424;DHT22;22458;45.328;9.514;2023-04-28T15:19:05;31.30;39.70
36424;DHT22;22458;45.328;9.514;2023-04-28T15:21:31;31.20;39.80
36424;DHT22;22458;45.328;9.514;2023-04-28T15:23:57;31.10;40.00
36424;DHT22;22458;45.328;9.514;2023-04-28T15:26:24;31.10;40.20
36424;DHT22;22458;45.328;9.514;2023-04-28T15:28:52;31.10;40.20
36424;DHT22;22458;45.328;9.514;2023-04-28T15:31:18;30.80;40.30
36424;DHT22;22458;45.328;9.514;2023-04-28T15:33:44;30.60;40.60
36424;DHT22;22458;45.328;9.514;2023-04-28T15:36:11;30.30;40.80
36424;DHT22;22458;45.328;9.514;2023-04-28T15:38:36;30.00;41.20
36424;DHT22;22458;45.328;9.514;2023-04-28T15:41:03;29.80;41.00
36424;DHT22;22458;45.328;9.514;2023-04-28T15:43:28;29.70;40.70
36424;DHT22;22458;45.328;9.514;2023-04-28T15:45:54;29.90;40.70
36424;DHT22;22458;45.328;9.514;2023-04-28T15:48:20;30.50;40.40
36424;DHT22;22458;45.328;9.514;2023-04-28T15:50:47;31.00;39.90
36424;DHT22;22458;45.328;9.514;2023-04-28T15:53:13;31.60;39.40
36424;DHT22;22458;45.328;9.514;2023-04-28T15:55:39;31.70;38.80
36424;DHT22;22458;45.328;9.514;2023-04-28T15:58:04;31.40;39.10